Time;durP1;ratioP1;P1;durP2;ratioP2;P2;SDS_P1;SDS_P2;PMS_P1;PMS_P2;Temp;Humidity;BMP_temperature;BMP_pressure;BME280_temperature;BME280_humidity;BME280_pressure;Samples;Min_cycle;Max_cycle;Signal;HPM_P1;HPM_P2
2021/05/27 07:32:39;;;;;;;2.03;1.50;;;13.80;99.90;;;;;;6131719;23;20014;-90
2021/05/27 07:35:08;;;;;;;1.58;1.10;;;13.80;99.90;;;;;;6151787;23;20060;-89
2021/05/27 07:37:38;;;;;;;2.28;1.50;;;13.90;99.90;;;;;;6151289;23;20404;-88
2021/05/27 07:40:06;;;;;;;2.72;1.10;;;13.90;99.90;;;;;;6151264;23;20013;-88
2021/05/27 07:42:33;;;;;;;3.45;1.30;;;14.00;99.90;;;;;;6150685;23;20018;-88
2021/05/27 07:45:01;;;;;;;1.20;0.70;;;14.10;99.90;;;;;;6150916;23;20021;-88
2021/05/27 07:47:29;;;;;;;1.23;0.68;;;14.10;99.90;;;;;;6152528;23;20110;-89
2021/05/27 07:49:57;;;;;;;2.25;0.60;;;14.20;99.90;;;;;;6151209;23;20021;-89
2021/05/27 07:52:23;;;;;;;0.77;0.47;;;14.20;99.90;;;;;;6150656;23;20026;-88
2021/05/27 07:54:53;;;;;;;1.60;0.80;;;14.20;99.90;;;;;;6151024;23;20400;-88
2021/05/27 07:57:20;;;;;;;1.63;0.77;;;14.30;99.90;;;;;;6149896;23;20025;-88
2021/05/27 07:59:48;;;;;;;1.27;0.50;;;14.30;99.90;;;;;;6151520;23;20406;-88
2021/05/27 08:02:15;;;;;;;4.72;0.75;;;14.40;99.90;;;;;;6151155;23;20017;-88
2021/05/27 08:04:45;;;;;;;3.05;0.40;;;14.50;99.90;;;;;;6152173;23;20025;-90
2021/05/27 08:07:12;;;;;;;2.72;0.60;;;14.50;99.90;;;;;;6150614;23;20021;-91
2021/05/27 08:09:39;;;;;;;2.85;0.50;;;14.60;99.90;;;;;;6151321;23;20021;-89
2021/05/27 08:12:08;;;;;;;1.27;0.60;;;14.70;99.90;;;;;;6150730;23;20064;-89
2021/05/27 08:14:35;;;;;;;;;;;14.80;99.90;;;;;;6151625;23;20017;-89
2021/05/27 08:17:02;;;;;;;1.95;0.65;;;14.90;99.90;;;;;;6150883;23;19951;-89
2021/05/27 08:19:29;;;;;;;1.38;0.70;;;15.00;99.90;;;;;;6150918;23;20088;-88
2021/05/27 08:21:56;;;;;;;1.83;0.57;;;15.10;99.90;;;;;;6151468;23;20014;-89
2021/05/27 08:24:23;;;;;;;4.00;0.77;;;15.20;99.90;;;;;;6150492;23;20456;-89
2021/05/27 08:26:50;;;;;;;1.83;0.55;;;15.30;99.90;;;;;;6152559;23;20017;-89
2021/05/27 08:29:17;;;;;;;2.25;0.77;;;15.40;99.90;;;;;;6150226;23;20021;-88
2021/05/27 08:31:44;;;;;;;1.50;0.57;;;15.50;99.90;;;;;;6151624;23;20476;-91
2021/05/27 08:34:11;;;;;;;2.35;0.90;;;15.50;99.90;;;;;;6149616;23;20017;-88
2021/05/27 08:36:38;;;;;;;1.85;0.50;;;15.60;99.90;;;;;;6150190;23;20389;-89
2021/05/27 08:39:07;;;;;;;1.05;0.65;;;15.70;99.90;;;;;;6149119;23;20022;-89
2021/05/27 08:41:34;;;;;;;1.42;0.55;;;15.70;99.90;;;;;;6149095;23;20080;-89
2021/05/27 08:44:05;;;;;;;2.47;1.30;;;15.80;99.90;;;;;;6149308;23;20022;-88
2021/05/27 08:46:32;;;;;;;2.55;0.65;;;15.90;99.90;;;;;;6148640;23;20060;-89
2021/05/27 08:49:00;;;;;;;2.67;0.60;;;16.00;99.90;;;;;;6149783;23;20049;-89
2021/05/27 08:51:33;;;;;;;1.55;0.82;;;16.10;99.90;;;;;;6147705;23;20031;-89
2021/05/27 08:54:04;;;;;;;2.60;1.05;;;16.20;99.90;;;;;;6148308;23;20025;-90
2021/05/27 08:56:32;;;;;;;2.45;0.85;;;16.30;99.90;;;;;;6148504;23;20104;-89
2021/05/27 08:58:59;;;;;;;2.70;1.08;;;16.50;99.90;;;;;;6148455;23;20021;-89
2021/05/27 09:01:26;;;;;;;1.58;1.00;;;16.50;99.90;;;;;;6149347;23;20017;-90
2021/05/27 09:03:54;;;;;;;1.50;1.02;;;16.60;99.90;;;;;;6149094;23;20018;-90
2021/05/27 09:06:23;;;;;;;2.25;0.93;;;16.60;99.90;;;;;;6149874;23;20520;-90
2021/05/27 09:09:07;;;;;;;2.85;0.90;;;16.70;99.90;;;;;;6152221;23;20404;-89
2021/05/27 09:11:38;;;;;;;1.38;0.90;;;16.70;99.90;;;;;;6150964;23;20018;-92
2021/05/27 09:14:06;;;;;;;3.50;1.50;;;16.60;99.90;;;;;;6149423;23;20076;-93
2021/05/27 09:16:33;;;;;;;3.85;1.30;;;16.60;99.90;;;;;;6149817;23;20021;-94
2021/05/27 09:19:19;;;;;;;3.75;1.10;;;16.60;99.90;;;;;;6149903;23;20521;-92
2021/05/27 09:21:46;;;;;;;3.42;1.20;;;16.50;99.90;;;;;;6149256;23;20020;-94
2021/05/27 09:24:14;;;;;;;3.15;1.17;;;16.50;99.90;;;;;;6149403;23;20039;-95
2021/05/27 09:26:52;;;;;;;2.40;1.08;;;16.50;99.90;;;;;;6149741;23;20017;-93
2021/05/27 09:29:19;;;;;;;2.75;1.20;;;16.50;99.90;;;;;;6151333;23;20018;-90
2021/05/27 09:32:05;;;;;;;2.28;1.08;;;16.50;99.90;;;;;;6148737;23;20025;-95
2021/05/27 09:34:52;;;;;;;1.77;0.90;;;16.50;99.90;;;;;;6151392;23;20017;-93
2021/05/27 09:37:29;;;;;;;4.07;1.10;;;16.50;99.90;;;;;;6150672;23;20076;-93
2021/05/27 09:40:04;;;;;;;2.72;1.05;;;16.60;99.90;;;;;;6151325;23;20071;-92
2021/05/27 09:42:48;;;;;;;2.15;1.08;;;16.70;99.90;;;;;;6150518;23;20022;-92
2021/05/27 09:45:17;;;;;;;5.43;1.52;;;16.70;99.90;;;;;;6149415;23;20056;-92
2021/05/27 09:47:45;;;;;;;3.30;1.30;;;16.80;99.90;;;;;;6152770;23;20345;-92
2021/05/27 09:50:12;;;;;;;2.80;1.58;;;16.90;99.90;;;;;;6151766;23;20022;-91
2021/05/27 09:52:41;;;;;;;2.45;1.00;;;16.90;99.90;;;;;;6154034;23;20025;-92
2021/05/27 09:55:12;;;;;;;1.45;1.10;;;17.00;99.90;;;;;;6151093;23;20020;-94
2021/05/27 09:57:41;;;;;;;2.40;1.10;;;17.10;99.90;;;;;;6153253;23;20080;-92
2021/05/27 10:00:29;;;;;;;1.55;0.95;;;17.20;99.90;;;;;;6152558;23;20017;-93
2021/05/27 10:02:56;;;;;;;2.85;1.05;;;17.40;99.90;;;;;;6152584;23;20021;-89
2021/05/27 10:05:23;;;;;;;1.98;1.10;;;17.50;99.90;;;;;;6151665;23;20025;-91
2021/05/27 10:07:52;;;;;;;2.03;1.10;;;17.60;99.90;;;;;;6153175;23;20018;-91
2021/05/27 10:10:40;;;;;;;;;;;17.80;99.90;;;;;;6153062;23;20540;-90
2021/05/27 10:13:09;;;;;;;2.15;1.08;;;17.90;99.90;;;;;;6177003;23;19916;-90
2021/05/27 10:15:35;;;;;;;1.67;0.82;;;18.00;99.90;;;;;;6153963;23;20014;-89
2021/05/27 10:18:04;;;;;;;2.85;0.90;;;18.30;99.90;;;;;;6152900;23;20025;-90
2021/05/27 10:20:33;;;;;;;2.80;1.15;;;18.50;99.90;;;;;;6151896;23;20029;-91
2021/05/27 10:23:01;;;;;;;1.23;0.90;;;18.60;99.90;;;;;;6152425;23;20017;-90
2021/05/27 10:25:28;;;;;;;2.42;0.80;;;18.80;99.90;;;;;;6152944;23;20803;-88
2021/05/27 10:28:00;;;;;;;1.58;0.90;;;18.90;99.90;;;;;;6155363;23;20024;-90
2021/05/27 10:30:30;;;;;;;2.15;0.70;;;18.90;99.90;;;;;;6151473;23;20018;-89
2021/05/27 10:33:01;;;;;;;1.63;0.70;;;18.90;99.90;;;;;;6151561;23;20393;-89
2021/05/27 10:35:52;;;;;;;1.60;0.85;;;19.00;99.90;;;;;;6151086;23;20930;-89
2021/05/27 10:38:37;;;;;;;3.13;1.00;;;19.00;99.90;;;;;;6151062;23;20026;-90
2021/05/27 10:41:12;;;;;;;2.65;0.93;;;19.10;99.90;;;;;;6152665;23;20096;-91
2021/05/27 10:43:58;;;;;;;2.67;1.10;;;19.10;99.90;;;;;;6151914;23;20069;-89
2021/05/27 10:46:26;;;;;;;1.63;0.80;;;19.10;99.90;;;;;;6151658;23;20014;-88
2021/05/27 10:48:54;;;;;;;2.13;0.95;;;19.20;99.90;;;;;;6152229;23;20013;-87
2021/05/27 10:52:06;;;;;;;1.42;0.80;;;19.20;99.90;;;;;;6152796;23;20021;-88
2021/05/27 10:54:15;;;;;;;1.83;0.93;;;19.20;99.90;;;;;;6143462;23;20025;-90
2021/05/27 10:56:47;;;;;;;2.17;0.80;;;19.30;99.90;;;;;;6150524;23;20073;-89
2021/05/27 10:59:16;;;;;;;2.38;0.88;;;19.30;99.90;;;;;;6150617;23;20038;-89
2021/05/27 11:01:43;;;;;;;2.10;0.90;;;19.40;99.90;;;;;;6150603;23;20084;-89
2021/05/27 11:04:25;;;;;;;1.65;0.80;;;19.50;99.90;;;;;;6151051;23;20021;-89
2021/05/27 11:07:21;;;;;;;2.90;0.80;;;19.50;99.90;;;;;;6153010;23;20456;-90
2021/05/27 11:09:50;;;;;;;3.83;1.40;;;19.60;99.90;;;;;;6150658;23;20333;-87
2021/05/27 11:12:24;;;;;;;2.65;0.80;;;19.70;99.90;;;;;;6151003;23;20017;-87
2021/05/27 11:14:54;;;;;;;1.88;0.90;;;19.80;99.90;;;;;;6151201;23;20017;-89
2021/05/27 11:17:24;;;;;;;1.50;0.80;;;19.90;99.90;;;;;;6150564;23;20026;-89
2021/05/27 11:20:08;;;;;;;2.28;0.88;;;20.00;99.90;;;;;;6150831;23;20392;-89
2021/05/27 11:25:13;;;;;;;2.42;0.82;;;20.30;99.90;;;;;;6146763;23;20026;-91
2021/05/27 11:28:11;;;;;;;1.13;0.60;;;20.20;99.90;;;;;;6149781;23;20437;-92
2021/05/27 11:30:41;;;;;;;;;;;20.20;99.90;;;;;;6151808;23;20018;-92
2021/05/27 11:33:23;;;;;;;2.53;0.75;;;20.10;99.90;;;;;;6151228;23;19948;-93
2021/05/27 11:35:57;;;;;;;2.15;0.80;;;20.20;99.90;;;;;;6151573;23;20072;-90
2021/05/27 11:38:26;;;;;;;1.30;0.70;;;20.30;99.90;;;;;;6151988;23;21007;-90
2021/05/27 11:41:04;;;;;;;1.13;0.88;;;20.30;99.90;;;;;;6151788;23;20018;-90
2021/05/27 11:43:32;;;;;;;3.53;0.88;;;20.30;99.90;;;;;;6151388;23;20068;-89
2021/05/27 11:46:04;;;;;;;2.65;0.70;;;20.20;99.90;;;;;;6151303;23;20052;-89
2021/05/27 11:48:35;;;;;;;2.42;1.10;;;20.20;99.90;;;;;;6151437;23;20017;-90
2021/05/27 11:51:05;;;;;;;2.13;0.63;;;20.10;99.90;;;;;;6151366;23;20092;-90
2021/05/27 11:53:48;;;;;;;3.03;1.02;;;20.20;99.90;;;;;;6152586;23;20070;-89
2021/05/27 11:56:36;;;;;;;3.13;1.00;;;20.10;99.90;;;;;;6150715;23;20021;-89
2021/05/27 11:59:33;;;;;;;3.10;0.90;;;20.10;99.90;;;;;;6151497;23;20017;-89
2021/05/27 12:02:01;;;;;;;1.33;0.77;;;20.00;99.90;;;;;;6138471;23;20018;-89
2021/05/27 12:04:30;;;;;;;2.33;1.10;;;20.00;99.90;;;;;;6150481;23;20524;-91
2021/05/27 12:06:58;;;;;;;;;;;20.10;99.90;;;;;;6152135;23;20025;-92
2021/05/27 12:09:46;;;;;;;3.08;1.00;;;20.20;99.90;;;;;;6175678;23;19920;-92
2021/05/27 12:12:17;;;;;;;2.22;0.70;;;20.20;99.90;;;;;;6151056;23;20024;-92
2021/05/27 12:14:47;;;;;;;4.57;1.10;;;20.10;99.90;;;;;;6150935;23;20072;-92
2021/05/27 12:17:17;;;;;;;0.95;0.60;;;20.10;99.90;;;;;;6150777;23;20025;-92
2021/05/27 12:19:49;;;;;;;2.65;0.68;;;20.00;99.90;;;;;;6150704;23;20025;-92
2021/05/27 12:22:16;;;;;;;4.80;1.00;;;20.00;99.90;;;;;;6150803;23;20469;-92
2021/05/27 12:24:43;;;;;;;4.15;1.00;;;19.90;99.90;;;;;;6151221;23;20064;-91
2021/05/27 12:27:10;;;;;;;2.60;1.08;;;19.90;99.90;;;;;;6150561;23;20021;-92
2021/05/27 12:29:39;;;;;;;3.35;1.05;;;19.70;99.90;;;;;;6151801;23;20520;-91
2021/05/27 12:32:08;;;;;;;3.33;0.90;;;19.70;99.90;;;;;;6150207;23;20068;-91
2021/05/27 12:34:39;;;;;;;3.47;0.93;;;19.60;99.90;;;;;;6150735;23;20017;-93
2021/05/27 12:37:06;;;;;;;2.00;1.10;;;19.50;99.90;;;;;;6151039;23;20022;-92
2021/05/27 12:39:42;;;;;;;1.80;0.90;;;19.50;99.90;;;;;;6152414;23;20021;-92
2021/05/27 12:42:10;;;;;;;2.30;0.90;;;19.40;99.90;;;;;;6152235;23;20017;-92
2021/05/27 12:44:44;;;;;;;2.85;0.88;;;19.50;99.90;;;;;;6150787;23;20021;-92
2021/05/27 12:47:16;;;;;;;3.58;1.00;;;19.50;99.90;;;;;;6150149;23;20025;-90
2021/05/27 12:49:44;;;;;;;2.70;1.00;;;19.30;99.90;;;;;;6150283;23;20076;-91
2021/05/27 12:52:12;;;;;;;1.95;0.80;;;19.20;99.90;;;;;;6151789;23;20029;-91
2021/05/27 12:54:39;;;;;;;2.33;0.90;;;19.20;99.90;;;;;;6151193;23;20543;-92
2021/05/27 12:57:09;;;;;;;3.70;0.93;;;19.30;99.90;;;;;;6150404;23;20457;-92
2021/05/27 12:59:38;;;;;;;3.28;1.02;;;19.40;99.90;;;;;;6150990;23;20025;-91
2021/05/27 13:02:09;;;;;;;2.45;0.80;;;19.50;99.90;;;;;;6150094;23;20017;-92
2021/05/27 13:04:38;;;;;;;3.70;0.70;;;19.50;99.90;;;;;;6150762;23;20519;-89
2021/05/27 13:07:07;;;;;;;;;;;19.60;99.90;;;;;;6151004;23;20014;-90
2021/05/27 13:09:53;;;;;;;2.10;0.70;;;19.80;99.90;;;;;;6175232;23;19917;-89
2021/05/27 13:12:22;;;;;;;1.85;0.60;;;19.90;99.90;;;;;;6151929;23;20441;-89
2021/05/27 13:15:11;;;;;;;2.17;0.85;;;20.10;99.90;;;;;;6151191;23;20344;-89
2021/05/27 13:17:39;;;;;;;1.90;0.65;;;20.30;99.90;;;;;;6150624;23;20017;-89
2021/05/27 13:20:08;;;;;;;1.20;0.45;;;20.50;99.90;;;;;;6150268;23;20024;-89
2021/05/27 13:22:35;;;;;;;1.55;0.40;;;20.60;99.90;;;;;;6152225;23;20488;-90
2021/05/27 13:25:11;;;;;;;1.45;0.50;;;20.80;99.90;;;;;;6152792;23;20080;-90
2021/05/27 13:27:50;;;;;;;2.58;0.60;;;21.00;99.90;;;;;;6151344;23;20068;-90
2021/05/27 13:30:30;;;;;;;1.45;0.45;;;21.20;99.90;;;;;;6152590;23;20316;-91
2021/05/27 13:33:04;;;;;;;1.33;0.45;;;21.20;99.90;;;;;;6152210;23;20575;-89
2021/05/27 13:35:31;;;;;;;1.98;0.63;;;21.20;99.90;;;;;;6153704;23;20021;-89
2021/05/27 13:37:59;;;;;;;3.08;0.60;;;21.00;99.90;;;;;;6155369;23;20425;-89
2021/05/27 13:40:28;;;;;;;1.60;0.40;;;21.00;99.90;;;;;;6154634;23;20021;-89
2021/05/27 13:42:58;;;;;;;2.42;0.40;;;21.10;99.90;;;;;;6154501;23;20021;-89
2021/05/27 13:45:26;;;;;;;1.65;0.28;;;21.10;99.90;;;;;;6154474;23;20319;-89
2021/05/27 13:47:53;;;;;;;;;;;21.20;99.90;;;;;;6156780;23;20127;-90
2021/05/27 13:50:24;;;;;;;0.68;0.30;;;21.20;99.90;;;;;;6179223;23;19916;-89
2021/05/27 13:52:53;;;;;;;1.27;0.40;;;21.20;99.90;;;;;;6154930;23;20342;-91
2021/05/27 13:55:23;;;;;;;0.95;0.30;;;21.20;99.90;;;;;;6154333;23;20025;-91
2021/05/27 13:57:50;;;;;;;1.08;0.40;;;21.30;99.90;;;;;;6154998;23;20345;-92
2021/05/27 14:00:17;;;;;;;0.80;0.47;;;21.30;99.90;;;;;;6154485;23;20025;-91
2021/05/27 14:02:48;;;;;;;1.45;0.20;;;21.30;99.90;;;;;;6156089;23;20013;-91
2021/05/27 14:05:15;;;;;;;0.40;0.15;;;21.30;99.90;;;;;;6154550;23;20021;-91
2021/05/27 14:07:42;;;;;;;1.55;0.30;;;21.30;99.90;;;;;;6154892;23;20021;-92
2021/05/27 14:10:10;;;;;;;1.13;0.30;;;21.40;99.90;;;;;;6154224;23;20072;-92
2021/05/27 14:12:36;;;;;;;1.67;0.20;;;21.50;99.90;;;;;;6156229;23;20014;-91
2021/05/27 14:15:04;;;;;;;0.93;0.30;;;21.60;99.90;;;;;;6156423;23;20014;-90
2021/05/27 14:17:31;;;;;;;1.75;0.50;;;21.80;99.90;;;;;;6154513;23;20373;-89
2021/05/27 14:19:58;;;;;;;1.25;0.50;;;21.70;99.90;;;;;;6154687;23;20021;-90
2021/05/27 14:22:27;;;;;;;1.27;0.50;;;21.80;99.90;;;;;;6154348;23;20017;-90
2021/05/27 14:24:54;;;;;;;2.42;0.85;;;21.80;99.90;;;;;;6155093;23;20017;-89
2021/05/27 14:27:22;;;;;;;0.40;0.20;;;21.80;99.90;;;;;;6153817;23;20429;-89
2021/05/27 14:29:50;;;;;;;0.93;0.50;;;21.80;99.90;;;;;;6155367;23;20014;-88
2021/05/27 14:32:18;;;;;;;0.98;0.50;;;21.80;99.90;;;;;;6153225;23;20048;-89
2021/05/27 14:34:45;;;;;;;1.15;0.20;;;21.70;99.90;;;;;;6154332;23;20519;-89
2021/05/27 14:37:12;;;;;;;0.82;0.40;;;21.60;99.90;;;;;;6153598;23;20021;-90
2021/05/27 14:39:39;;;;;;;1.55;0.30;;;21.60;99.90;;;;;;6154512;23;20022;-89
2021/05/27 14:42:06;;;;;;;1.93;0.60;;;21.70;99.90;;;;;;6153996;23;20014;-88
2021/05/27 14:44:33;;;;;;;1.20;0.50;;;21.60;99.30;;;;;;6155424;23;20755;-89
2021/05/27 14:47:00;;;;;;;1.42;0.50;;;21.60;99.50;;;;;;6154363;23;20474;-89
2021/05/27 14:49:27;;;;;;;1.90;0.50;;;21.50;99.90;;;;;;6154044;23;20091;-89
2021/05/27 14:51:54;;;;;;;0.70;0.50;;;21.50;99.80;;;;;;6154488;23;20396;-89
2021/05/27 14:54:21;;;;;;;0.70;0.20;;;21.40;99.80;;;;;;6155318;23;20018;-89
2021/05/27 14:56:48;;;;;;;0.65;0.25;;;21.40;99.40;;;;;;6154401;23;20017;-88
2021/05/27 14:59:15;;;;;;;0.55;0.25;;;21.30;99.30;;;;;;6153865;23;20022;-88
2021/05/27 15:01:42;;;;;;;0.52;0.40;;;21.30;99.10;;;;;;6154547;23;20017;-89
2021/05/27 15:04:09;;;;;;;1.55;0.40;;;21.30;98.90;;;;;;6154112;23;20510;-92
2021/05/27 15:06:39;;;;;;;0.80;0.30;;;21.30;99.00;;;;;;6156165;23;20072;-91
2021/05/27 15:09:08;;;;;;;1.70;0.35;;;21.30;99.40;;;;;;6155288;23;20453;-89
2021/05/27 15:11:36;;;;;;;2.28;0.47;;;21.30;99.20;;;;;;6154224;23;20080;-88
2021/05/27 15:14:04;;;;;;;1.05;0.40;;;21.30;99.10;;;;;;6155528;23;20018;-86
2021/05/27 15:16:31;;;;;;;1.02;0.35;;;21.30;99.30;;;;;;6153762;23;20017;-87
2021/05/27 15:18:58;;;;;;;2.75;0.50;;;21.20;99.40;;;;;;6154734;23;20049;-88
2021/05/27 15:21:32;;;;;;;2.17;0.32;;;21.20;99.40;;;;;;6154520;23;20353;-91
2021/05/27 15:23:59;;;;;;;8.05;0.80;;;21.30;99.40;;;;;;6153852;23;20013;-89
2021/05/27 15:26:26;;;;;;;2.13;0.50;;;21.40;99.50;;;;;;6154702;23;20017;-91
2021/05/27 15:28:52;;;;;;;0.50;0.32;;;21.40;99.70;;;;;;6153388;23;20055;-89
2021/05/27 15:31:19;;;;;;;2.05;0.40;;;21.50;99.30;;;;;;6150340;23;20022;-90
2021/05/27 15:33:48;;;;;;;1.58;0.40;;;21.50;99.10;;;;;;6149819;23;20021;-90
2021/05/27 15:36:15;;;;;;;0.68;0.20;;;21.50;98.90;;;;;;6148412;23;20412;-88
2021/05/27 15:38:44;;;;;;;0.82;0.30;;;21.50;98.80;;;;;;6151334;23;20495;-90
2021/05/27 15:41:12;;;;;;;0.98;0.30;;;21.50;98.30;;;;;;6152817;23;20021;-90
2021/05/27 15:43:39;;;;;;;0.88;0.40;;;21.50;98.50;;;;;;6153486;23;20017;-89
2021/05/27 15:46:06;;;;;;;2.00;0.50;;;21.50;98.40;;;;;;6151436;23;20076;-90
2021/05/27 15:48:34;;;;;;;0.88;0.40;;;21.60;98.50;;;;;;6151210;23;20021;-90
2021/05/27 15:51:00;;;;;;;1.10;0.47;;;21.60;98.40;;;;;;6152125;23;20049;-89
2021/05/27 15:53:27;;;;;;;0.50;0.20;;;21.60;98.10;;;;;;6151772;23;20072;-90
2021/05/27 15:55:54;;;;;;;1.67;0.40;;;21.60;98.30;;;;;;6150999;23;20079;-89
2021/05/27 15:58:21;;;;;;;1.05;0.30;;;21.60;98.40;;;;;;6150053;23;20045;-90
2021/05/27 16:00:48;;;;;;;1.05;0.30;;;21.70;98.40;;;;;;6150841;23;20068;-91
2021/05/27 16:03:15;;;;;;;0.43;0.22;;;21.70;98.50;;;;;;6149075;23;20018;-91
2021/05/27 16:05:42;;;;;;;1.13;0.50;;;21.70;97.90;;;;;;6151161;23;20021;-91
2021/05/27 16:08:09;;;;;;;0.52;0.30;;;21.70;97.60;;;;;;6151238;23;20021;-91
2021/05/27 16:10:36;;;;;;;1.33;0.25;;;21.70;97.70;;;;;;6151275;23;20167;-90
2021/05/27 16:13:06;;;;;;;0.93;0.38;;;21.70;97.20;;;;;;6152303;23;20021;-90
2021/05/27 16:15:34;;;;;;;0.80;0.22;;;21.70;97.10;;;;;;6151955;23;20021;-89
2021/05/27 16:18:01;;;;;;;1.40;0.32;;;21.70;97.10;;;;;;6152013;23;20080;-89
2021/05/27 16:20:28;;;;;;;0.88;0.50;;;21.70;96.70;;;;;;6150532;23;20027;-90
2021/05/27 16:22:55;;;;;;;0.38;0.25;;;21.70;97.00;;;;;;6151752;23;20045;-90
2021/05/27 16:25:23;;;;;;;0.82;0.40;;;21.80;97.10;;;;;;6150662;23;20025;-90
2021/05/27 16:27:50;;;;;;;0.47;0.32;;;21.80;96.80;;;;;;6151298;23;20219;-89
2021/05/27 16:30:18;;;;;;;0.30;0.30;;;21.90;96.30;;;;;;6149779;23;20021;-88
2021/05/27 16:32:45;;;;;;;3.15;1.25;;;21.90;95.80;;;;;;6150443;23;20021;-89
2021/05/27 16:35:26;;;;;;;3.95;1.30;;;21.80;97.50;;;;;;6150094;23;20461;-88
2021/05/27 16:41:07;;;;;;;5.22;1.40;;;21.60;99.90;;;;;;6090739;23;20022;-90
2021/05/27 16:43:35;;;;;;;2.60;1.10;;;21.50;99.90;;;;;;6090546;23;20074;-90
2021/05/27 16:46:03;;;;;;;2.45;1.30;;;21.40;99.90;;;;;;6090997;23;20022;-90
2021/05/27 16:48:32;;;;;;;2.58;1.00;;;21.30;99.90;;;;;;6090154;23;20045;-89
2021/05/27 16:51:00;;;;;;;1.63;1.08;;;21.20;99.90;;;;;;6090888;23;20078;-89
2021/05/27 16:53:27;;;;;;;2.47;1.10;;;21.20;99.90;;;;;;6089746;23;20019;-89
2021/05/27 16:55:54;;;;;;;2.90;1.13;;;21.10;99.90;;;;;;6091221;23;20461;-90
2021/05/27 16:58:21;;;;;;;3.35;1.20;;;21.20;99.90;;;;;;6089443;23;20077;-90
2021/05/27 17:00:48;;;;;;;3.63;1.08;;;21.20;99.90;;;;;;6090168;23;20078;-89
2021/05/27 17:03:14;;;;;;;1.90;0.98;;;21.20;99.90;;;;;;6090111;23;20033;-88
2021/05/27 17:05:42;;;;;;;4.03;1.20;;;21.30;99.90;;;;;;6090860;23;20030;-86
2021/05/27 17:08:09;;;;;;;4.82;1.27;;;21.30;99.90;;;;;;6087225;23;20030;-87
2021/05/27 17:10:36;;;;;;;2.65;1.27;;;21.30;99.90;;;;;;6091458;23;20026;-89
2021/05/27 17:13:03;;;;;;;2.97;1.10;;;21.20;99.90;;;;;;6091193;23;20074;-88
2021/05/27 17:15:30;;;;;;;4.57;1.63;;;21.10;99.90;;;;;;6089264;23;20029;-88
2021/05/27 17:18:02;;;;;;;4.45;1.60;;;21.00;99.90;;;;;;6151117;23;20468;-85
2021/05/27 17:20:31;;;;;;;4.00;1.30;;;21.00;99.90;;;;;;6150048;23;20080;-89
2021/05/27 17:22:58;;;;;;;;;;;20.90;99.90;;;;;;6152498;23;20025;-88
2021/05/27 17:25:25;;;;;;;4.88;1.30;;;20.80;99.90;;;;;;6149876;23;19920;-88
2021/05/27 17:27:52;;;;;;;2.80;1.20;;;20.60;99.90;;;;;;6152507;23;20069;-86
2021/05/27 17:30:20;;;;;;;6.93;1.60;;;20.40;99.90;;;;;;6149717;23;20528;-86
2021/05/27 17:32:47;;;;;;;4.05;1.58;;;20.40;99.90;;;;;;6152030;23;20017;-88
2021/05/27 17:35:14;;;;;;;3.10;1.08;;;20.30;99.90;;;;;;6152190;23;20038;-88
2021/05/27 17:37:43;;;;;;;7.38;1.40;;;20.20;99.90;;;;;;6151111;23;20021;-86
2021/05/27 17:40:13;;;;;;;4.38;1.35;;;19.90;99.90;;;;;;6151953;23;20013;-87
2021/05/27 17:42:41;;;;;;;2.78;1.25;;;19.70;99.90;;;;;;6151819;23;20018;-87
2021/05/27 17:45:08;;;;;;;3.20;1.30;;;19.70;99.90;;;;;;6148199;23;20096;-90
2021/05/27 17:47:40;;;;;;;3.85;1.35;;;19.70;99.90;;;;;;6148488;23;20017;-87
2021/05/27 17:50:12;;;;;;;3.63;1.30;;;19.80;99.90;;;;;;6148990;23;20018;-89
2021/05/27 17:52:40;;;;;;;4.28;1.48;;;20.10;99.90;;;;;;6149233;23;20393;-87
2021/05/27 17:55:08;;;;;;;4.35;1.10;;;20.30;99.90;;;;;;6151007;23;20017;-88
2021/05/27 17:57:36;;;;;;;;;;;20.60;99.90;;;;;;6151402;23;20017;-87
2021/05/27 18:00:06;;;;;;;3.30;1.10;;;20.80;99.90;;;;;;6151367;23;19917;-86
2021/05/27 18:02:33;;;;;;;3.28;1.25;;;21.20;99.90;;;;;;6149889;23;20373;-88
2021/05/27 18:05:00;;;;;;;2.08;0.90;;;21.80;99.90;;;;;;6149877;23;20021;-88
2021/05/27 18:07:28;;;;;;;2.35;0.90;;;22.40;99.90;;;;;;6149574;23;20037;-86
2021/05/27 18:09:55;;;;;;;2.97;0.90;;;23.00;99.90;;;;;;6149807;23;20044;-88
2021/05/27 18:12:21;;;;;;;2.03;0.80;;;23.30;99.90;;;;;;6149165;23;20018;-89
2021/05/27 18:14:48;;;;;;;3.30;0.90;;;23.70;99.90;;;;;;6149836;23;20018;-88
2021/05/27 18:17:16;;;;;;;3.85;1.02;;;24.10;99.90;;;;;;6149523;23;20507;-87
2021/05/27 18:19:43;;;;;;;2.78;1.00;;;24.30;99.30;;;;;;6151299;23;20068;-88
2021/05/27 18:22:09;;;;;;;3.40;1.10;;;24.60;98.50;;;;;;6151642;23;20018;-87
2021/05/27 18:24:37;;;;;;;4.20;1.15;;;24.80;98.30;;;;;;6151660;23;20017;-87
2021/05/27 18:27:04;;;;;;;3.83;0.95;;;24.80;97.50;;;;;;6152956;23;20088;-89
2021/05/27 18:29:31;;;;;;;3.40;0.93;;;24.60;97.30;;;;;;6151419;23;20056;-87
2021/05/27 18:31:58;;;;;;;2.88;1.00;;;24.70;97.30;;;;;;6151939;23;20025;-89
2021/05/27 18:34:25;;;;;;;3.63;1.02;;;24.90;96.90;;;;;;6150553;23;20417;-88
2021/05/27 18:36:52;;;;;;;2.60;0.70;;;25.00;96.60;;;;;;6153330;23;20318;-89
2021/05/27 18:39:19;;;;;;;3.03;0.88;;;25.40;96.40;;;;;;6150643;23;20064;-88
2021/05/27 18:41:47;;;;;;;2.60;0.90;;;25.60;95.70;;;;;;6151929;23;20014;-88
2021/05/27 18:44:14;;;;;;;2.85;1.05;;;25.30;95.40;;;;;;6151107;23;20080;-88
2021/05/27 18:46:44;;;;;;;3.10;1.10;;;25.40;95.30;;;;;;6151143;23;20025;-88
2021/05/27 18:49:13;;;;;;;2.03;0.90;;;25.10;94.50;;;;;;6150800;23;20453;-89
2021/05/27 18:51:40;;;;;;;4.50;1.27;;;24.80;94.90;;;;;;6151353;23;20077;-87
2021/05/27 18:54:09;;;;;;;3.33;0.90;;;24.30;94.90;;;;;;6150906;23;20041;-88
2021/05/27 18:56:36;;;;;;;3.88;1.00;;;23.60;95.20;;;;;;6151247;23;20021;-90
2021/05/27 18:59:04;;;;;;;2.78;1.00;;;23.00;95.90;;;;;;6152988;23;20320;-90
2021/05/27 19:01:31;;;;;;;4.93;1.10;;;22.40;96.40;;;;;;6152809;23;20017;-90
2021/05/27 19:03:58;;;;;;;3.45;1.10;;;21.60;97.20;;;;;;6152495;23;20341;-90
2021/05/27 19:06:25;;;;;;;3.22;1.00;;;21.00;98.00;;;;;;6152607;23;20026;-89
2021/05/27 19:08:52;;;;;;;3.55;1.45;;;20.50;98.90;;;;;;6152439;23;20076;-91
2021/05/27 19:11:21;;;;;;;2.63;1.17;;;20.00;99.70;;;;;;6154050;23;20030;-88
2021/05/27 19:13:48;;;;;;;;;;;19.50;99.90;;;;;;6153585;23;20022;-90
2021/05/27 19:16:16;;;;;;;6.70;1.38;;;19.00;99.90;;;;;;6153045;23;20308;-89
2021/05/27 19:18:43;;;;;;;3.78;1.15;;;18.70;99.90;;;;;;6153369;23;20017;-89
2021/05/27 19:21:10;;;;;;;3.70;1.30;;;18.30;99.90;;;;;;6152587;23;20076;-89
2021/05/27 19:23:38;;;;;;;2.97;1.13;;;18.10;99.90;;;;;;6154643;23;20021;-88
2021/05/27 19:26:05;;;;;;;2.78;1.23;;;17.90;99.90;;;;;;6152560;23;20029;-89
2021/05/27 19:28:32;;;;;;;3.70;1.67;;;17.60;99.90;;;;;;6152411;23;20021;-89
2021/05/27 19:30:59;;;;;;;6.38;1.48;;;17.40;99.90;;;;;;6152146;23;20076;-90
2021/05/27 19:33:26;;;;;;;4.57;1.50;;;17.20;99.90;;;;;;6154007;23;20041;-89
2021/05/27 19:35:53;;;;;;;5.82;1.67;;;17.00;99.90;;;;;;6152963;23;20524;-89
2021/05/27 19:38:20;;;;;;;6.10;1.98;;;16.80;99.90;;;;;;6152725;23;20022;-89
2021/05/27 19:40:47;;;;;;;3.42;1.73;;;16.60;99.90;;;;;;6153078;23;20048;-89
2021/05/27 19:43:14;;;;;;;5.65;1.73;;;16.40;99.90;;;;;;6153358;23;20025;-88
2021/05/27 19:45:43;;;;;;;4.43;1.52;;;16.20;99.90;;;;;;6152170;23;20022;-89
2021/05/27 19:48:17;;;;;;;4.00;1.75;;;16.10;99.90;;;;;;6151771;23;20072;-88
2021/05/27 19:50:44;;;;;;;3.97;1.42;;;15.90;99.90;;;;;;6153024;23;20064;-88
2021/05/27 19:53:11;;;;;;;3.28;1.40;;;15.80;99.90;;;;;;6150426;23;20014;-88
2021/05/27 19:55:39;;;;;;;3.15;1.40;;;15.60;99.90;;;;;;6151098;23;20017;-87
2021/05/27 19:58:07;;;;;;;4.38;1.80;;;15.50;99.90;;;;;;6150966;23;20322;-88
2021/05/27 20:00:34;;;;;;;3.58;1.42;;;15.40;99.90;;;;;;6150817;23;20041;-88
2021/05/27 20:03:06;;;;;;;2.25;1.40;;;15.30;99.90;;;;;;6150871;23;20022;-88
2021/05/27 20:05:36;;;;;;;4.55;1.90;;;15.20;99.90;;;;;;6151656;23;20025;-88
2021/05/27 20:08:05;;;;;;;5.10;1.80;;;15.10;99.90;;;;;;6152227;23;20029;-88
2021/05/27 20:10:36;;;;;;;3.97;2.05;;;15.00;99.90;;;;;;6151917;23;20391;-88
2021/05/27 20:13:03;;;;;;;6.38;1.65;;;14.90;99.90;;;;;;6152395;23;20077;-89
2021/05/27 20:15:30;;;;;;;4.05;1.50;;;14.80;99.90;;;;;;6152158;23;20014;-88
2021/05/27 20:17:58;;;;;;;3.80;1.58;;;14.80;99.90;;;;;;6152929;23;20014;-89
2021/05/27 20:20:25;;;;;;;5.55;2.08;;;14.70;99.90;;;;;;6153951;23;20076;-90
2021/05/27 20:22:57;;;;;;;2.92;1.50;;;14.60;99.90;;;;;;6152090;23;20026;-90
2021/05/27 20:25:24;;;;;;;4.38;1.80;;;14.60;99.90;;;;;;6152321;23;20115;-89
2021/05/27 20:27:51;;;;;;;5.22;2.10;;;14.50;99.90;;;;;;6152833;23;20022;-88
2021/05/27 20:30:22;;;;;;;4.30;1.90;;;14.40;99.90;;;;;;6151235;23;20096;-88
2021/05/27 20:32:50;;;;;;;4.55;2.10;;;14.40;99.90;;;;;;6151815;23;20026;-87
2021/05/27 20:35:18;;;;;;;4.75;2.05;;;14.30;99.90;;;;;;6151197;23;20021;-88
2021/05/27 20:37:48;;;;;;;4.05;2.38;;;14.30;99.90;;;;;;6152316;23;20029;-87